Time;durP1;ratioP1;P1;durP2;ratioP2;P2;SDS_P1;SDS_P2;PMS_P1;PMS_P2;Temp;Humidity;BMP_temperature;BMP_pressure;BME280_temperature;BME280_humidity;BME280_pressure;Samples;Min_cycle;Max_cycle;Signal;HPM_P1;HPM_P2
2023/12/02 00:00:21;;;;;;;16.50;9.93;;;;;;;;;;5282281;28;20399;-77
2023/12/02 00:02:53;;;;;;;18.10;10.87;;;;;;;;;;5282933;28;20027;-77
2023/12/02 00:05:24;;;;;;;17.90;10.07;;;;;;;;;;5281855;28;20024;-78
2023/12/02 00:07:55;;;;;;;17.73;10.57;;;;;;;;;;5282808;28;20037;-78
2023/12/02 00:10:26;;;;;;;16.60;10.07;;;;;;;;;;5282062;28;20023;-78
2023/12/02 00:12:57;;;;;;;19.70;11.23;;;;;;;;;;5282130;28;20451;-78
2023/12/02 00:15:28;;;;;;;16.30;10.43;;;;;;;;;;5282466;28;20060;-78
2023/12/02 00:18:00;;;;;;;16.53;10.73;;;;;;;;;;5282972;28;20025;-78
2023/12/02 00:20:31;;;;;;;18.93;11.47;;;;;;;;;;5282107;28;20017;-77
2023/12/02 00:23:02;;;;;;;18.57;10.63;;;;;;;;;;5282972;28;20142;-77
2023/12/02 00:25:34;;;;;;;18.27;11.73;;;;;;;;;;5281820;28;20026;-79
2023/12/02 00:28:06;;;;;;;17.07;10.80;;;;;;;;;;5282556;28;20043;-78
2023/12/02 00:30:37;;;;;;;16.57;10.57;;;;;;;;;;5282371;28;20020;-78
2023/12/02 00:33:08;;;;;;;15.67;10.23;;;;;;;;;;5281430;28;20036;-78
2023/12/02 00:35:39;;;;;;;16.47;10.23;;;;;;;;;;5282006;28;20126;-78
2023/12/02 00:38:11;;;;;;;19.77;11.67;;;;;;;;;;5282395;28;20016;-78
2023/12/02 00:40:42;;;;;;;15.03;10.50;;;;;;;;;;5281215;28;20024;-78
2023/12/02 00:43:13;;;;;;;17.17;10.37;;;;;;;;;;5281987;28;20052;-80
2023/12/02 00:45:44;;;;;;;17.87;10.60;;;;;;;;;;5282008;28;20024;-78
2023/12/02 00:48:15;;;;;;;19.73;11.87;;;;;;;;;;5280951;28;20028;-78
2023/12/02 00:50:47;;;;;;;17.10;10.83;;;;;;;;;;5281623;28;20017;-78
2023/12/02 00:53:18;;;;;;;17.80;10.50;;;;;;;;;;5281382;28;20044;-78
2023/12/02 00:55:49;;;;;;;15.17;9.03;;;;;;;;;;5280853;28;20480;-78
2023/12/02 00:58:20;;;;;;;17.47;10.80;;;;;;;;;;5281340;28;20097;-77
2023/12/02 01:00:51;;;;;;;18.00;11.13;;;;;;;;;;5280836;28;20408;-77
2023/12/02 01:03:22;;;;;;;17.40;10.60;;;;;;;;;;5281259;28;20081;-77
2023/12/02 01:05:54;;;;;;;17.60;10.57;;;;;;;;;;5281782;28;20020;-78
2023/12/02 01:08:25;;;;;;;15.43;10.13;;;;;;;;;;5280676;28;20146;-78
2023/12/02 01:10:56;;;;;;;15.97;9.73;;;;;;;;;;5281969;28;20017;-78
2023/12/02 01:13:27;;;;;;;17.13;11.03;;;;;;;;;;5281637;28;20028;-78
2023/12/02 01:15:58;;;;;;;19.53;11.37;;;;;;;;;;5280842;28;20077;-78
2023/12/02 01:18:30;;;;;;;17.57;11.10;;;;;;;;;;5281617;28;20025;-77
2023/12/02 01:21:01;;;;;;;16.83;10.60;;;;;;;;;;5281481;28;20131;-78
2023/12/02 01:23:32;;;;;;;16.43;10.27;;;;;;;;;;5280738;28;20032;-78
2023/12/02 01:26:03;;;;;;;19.85;11.80;;;;;;;;;;5281317;28;20104;-79
2023/12/02 01:28:34;;;;;;;16.37;10.93;;;;;;;;;;5281416;28;20043;-79
2023/12/02 01:31:06;;;;;;;15.43;10.10;;;;;;;;;;5280752;28;20027;-78
2023/12/02 01:33:37;;;;;;;18.17;11.50;;;;;;;;;;5281526;28;20028;-78
2023/12/02 01:36:11;;;;;;;19.43;10.77;;;;;;;;;;5280568;28;20020;-78
2023/12/02 01:38:42;;;;;;;18.63;11.43;;;;;;;;;;5281359;28;20017;-78
2023/12/02 01:41:13;;;;;;;17.67;10.97;;;;;;;;;;5281258;28;20035;-78
2023/12/02 01:43:44;;;;;;;16.63;10.77;;;;;;;;;;5280665;28;20031;-77
2023/12/02 01:46:15;;;;;;;15.90;10.30;;;;;;;;;;5281376;28;20024;-78
2023/12/02 01:48:47;;;;;;;16.43;10.27;;;;;;;;;;5281326;28;20028;-77
2023/12/02 01:51:18;;;;;;;16.63;11.13;;;;;;;;;;5280453;28;20024;-78
2023/12/02 01:53:49;;;;;;;17.63;11.07;;;;;;;;;;5281139;28;20060;-78
2023/12/02 01:56:21;;;;;;;17.60;10.93;;;;;;;;;;5281107;28;20016;-78
2023/12/02 01:58:52;;;;;;;17.67;10.90;;;;;;;;;;5281198;28;20027;-78
2023/12/02 02:01:24;;;;;;;19.27;11.50;;;;;;;;;;5281127;28;20131;-78
2023/12/02 02:03:56;;;;;;;17.90;11.37;;;;;;;;;;5281390;28;20440;-77
2023/12/02 02:06:27;;;;;;;17.03;10.57;;;;;;;;;;5281418;28;20009;-77
2023/12/02 02:08:59;;;;;;;19.50;11.97;;;;;;;;;;5285134;28;20024;-78
2023/12/02 02:11:30;;;;;;;17.30;11.07;;;;;;;;;;5284649;28;20494;-78
2023/12/02 02:14:02;;;;;;;22.20;12.40;;;;;;;;;;5285617;28;20057;-78
2023/12/02 02:16:33;;;;;;;19.73;12.33;;;;;;;;;;5285546;28;20089;-78
2023/12/02 02:19:05;;;;;;;20.00;12.73;;;;;;;;;;5284615;28;20017;-78
2023/12/02 02:21:36;;;;;;;19.87;11.20;;;;;;;;;;5285293;28;20096;-78
2023/12/02 02:24:07;;;;;;;19.27;12.00;;;;;;;;;;5284952;28;20078;-78
2023/12/02 02:26:39;;;;;;;19.00;11.73;;;;;;;;;;5284487;28;20028;-77
2023/12/02 02:29:10;;;;;;;18.50;11.47;;;;;;;;;;5288752;28;20020;-77
2023/12/02 02:31:41;;;;;;;18.13;11.70;;;;;;;;;;5292807;28;20020;-78
2023/12/02 02:34:12;;;;;;;18.37;11.47;;;;;;;;;;5292367;28;20202;-77
2023/12/02 02:36:43;;;;;;;18.37;11.03;;;;;;;;;;5294362;28;20036;-77
2023/12/02 02:39:15;;;;;;;17.63;10.87;;;;;;;;;;5290527;28;20020;-77
2023/12/02 02:41:46;;;;;;;19.73;12.13;;;;;;;;;;5290682;28;20080;-77
2023/12/02 02:44:17;;;;;;;19.03;11.90;;;;;;;;;;5290337;28;20046;-78
2023/12/02 02:46:48;;;;;;;19.07;11.80;;;;;;;;;;5290391;28;20020;-77
2023/12/02 02:49:20;;;;;;;18.07;11.07;;;;;;;;;;5289831;28;20028;-77
2023/12/02 02:51:51;;;;;;;19.33;12.00;;;;;;;;;;5286377;28;20012;-77
2023/12/02 02:54:23;;;;;;;19.33;11.80;;;;;;;;;;5283248;28;20452;-78
2023/12/02 02:56:54;;;;;;;19.17;12.47;;;;;;;;;;5284192;28;20115;-78
2023/12/02 02:59:26;;;;;;;20.40;12.00;;;;;;;;;;5283816;28;20017;-77
2023/12/02 03:01:57;;;;;;;20.10;12.37;;;;;;;;;;5283388;28;20037;-78
2023/12/02 03:04:28;;;;;;;22.57;13.40;;;;;;;;;;5283730;28;20031;-78
2023/12/02 03:06:59;;;;;;;24.13;13.18;;;;;;;;;;5283702;28;20044;-78
2023/12/02 03:09:30;;;;;;;21.33;12.53;;;;;;;;;;5283056;28;20051;-78
2023/12/02 03:12:02;;;;;;;19.90;12.90;;;;;;;;;;5283513;28;20368;-78
2023/12/02 03:14:33;;;;;;;18.43;11.33;;;;;;;;;;5282739;28;20021;-78
2023/12/02 03:17:05;;;;;;;17.85;11.32;;;;;;;;;;5283390;28;20482;-78
2023/12/02 03:19:36;;;;;;;19.13;11.70;;;;;;;;;;5282362;28;20560;-77
2023/12/02 03:22:07;;;;;;;16.80;11.57;;;;;;;;;;5282652;28;20031;-76
2023/12/02 03:24:38;;;;;;;17.83;11.90;;;;;;;;;;5283164;28;20020;-78
2023/12/02 03:27:09;;;;;;;18.90;12.20;;;;;;;;;;5282987;28;20111;-76
2023/12/02 03:29:41;;;;;;;16.80;10.30;;;;;;;;;;5282432;28;20108;-77
2023/12/02 03:32:12;;;;;;;18.87;11.70;;;;;;;;;;5283176;28;20024;-77
2023/12/02 03:34:43;;;;;;;17.52;11.80;;;;;;;;;;5283251;28;20559;-77
2023/12/02 03:37:14;;;;;;;19.87;12.93;;;;;;;;;;5282623;28;20420;-76
2023/12/02 03:39:45;;;;;;;18.60;11.90;;;;;;;;;;5283263;28;20017;-77
2023/12/02 03:42:17;;;;;;;17.97;11.70;;;;;;;;;;5283448;28;20042;-77
2023/12/02 03:44:48;;;;;;;16.97;10.90;;;;;;;;;;5282644;28;20016;-77
2023/12/02 03:47:19;;;;;;;16.17;10.90;;;;;;;;;;5283079;28;20123;-78
2023/12/02 03:49:50;;;;;;;18.08;11.23;;;;;;;;;;5282308;28;20074;-77
2023/12/02 03:52:21;;;;;;;21.23;12.73;;;;;;;;;;5282240;28;20127;-77
2023/12/02 03:54:52;;;;;;;17.50;10.93;;;;;;;;;;5283463;28;20483;-78
2023/12/02 03:57:24;;;;;;;19.20;12.53;;;;;;;;;;5282063;28;20032;-77
2023/12/02 03:59:56;;;;;;;18.10;11.60;;;;;;;;;;5283162;28;20027;-77
2023/12/02 04:02:28;;;;;;;19.20;12.23;;;;;;;;;;5282622;28;20032;-77
2023/12/02 04:04:59;;;;;;;21.33;12.57;;;;;;;;;;5282204;28;20095;-77
2023/12/02 04:07:30;;;;;;;20.43;12.63;;;;;;;;;;5282715;28;20032;-77
2023/12/02 04:10:02;;;;;;;17.70;10.57;;;;;;;;;;5282767;28;20091;-76
2023/12/02 04:12:34;;;;;;;19.43;12.83;;;;;;;;;;5281989;28;20020;-77
2023/12/02 04:15:06;;;;;;;21.93;12.93;;;;;;;;;;5282559;28;20017;-77
2023/12/02 04:17:37;;;;;;;18.77;12.07;;;;;;;;;;5282047;28;20027;-77
2023/12/02 04:20:10;;;;;;;20.97;13.50;;;;;;;;;;5282785;28;20088;-77
2023/12/02 04:22:42;;;;;;;18.13;11.73;;;;;;;;;;5282610;28;20056;-77
2023/12/02 04:25:13;;;;;;;21.87;13.00;;;;;;;;;;5281658;28;20063;-77
2023/12/02 04:27:46;;;;;;;20.00;13.07;;;;;;;;;;5282102;28;20046;-77
2023/12/02 04:30:17;;;;;;;22.30;12.40;;;;;;;;;;5281709;28;20048;-77
2023/12/02 04:32:49;;;;;;;18.53;12.63;;;;;;;;;;5281531;28;20510;-77
2023/12/02 04:35:20;;;;;;;20.20;12.80;;;;;;;;;;5281991;28;20016;-77
2023/12/02 04:37:51;;;;;;;18.73;12.23;;;;;;;;;;5282027;28;20099;-78
2023/12/02 04:40:22;;;;;;;17.73;11.47;;;;;;;;;;5280777;28;20028;-77
2023/12/02 04:42:53;;;;;;;19.57;12.40;;;;;;;;;;5282275;28;20506;-78
2023/12/02 04:45:25;;;;;;;19.27;12.17;;;;;;;;;;5281518;28;20032;-78
2023/12/02 04:47:56;;;;;;;20.40;13.03;;;;;;;;;;5281298;28;20031;-78
2023/12/02 04:50:27;;;;;;;18.80;12.30;;;;;;;;;;5281453;28;20023;-78
2023/12/02 04:52:59;;;;;;;18.90;12.37;;;;;;;;;;5280723;28;20051;-77
2023/12/02 04:55:30;;;;;;;20.00;12.60;;;;;;;;;;5281776;28;20450;-78
2023/12/02 04:58:01;;;;;;;16.27;11.63;;;;;;;;;;5282074;28;20113;-78
2023/12/02 05:00:32;;;;;;;19.80;12.77;;;;;;;;;;5280744;28;20021;-78
2023/12/02 05:03:04;;;;;;;17.40;11.40;;;;;;;;;;5281485;28;20036;-78
2023/12/02 05:05:35;;;;;;;18.93;11.87;;;;;;;;;;5281491;28;20439;-78
2023/12/02 05:08:06;;;;;;;16.97;11.43;;;;;;;;;;5280633;28;20493;-77
2023/12/02 05:10:37;;;;;;;17.93;11.77;;;;;;;;;;5281526;28;20464;-78
2023/12/02 05:13:08;;;;;;;18.27;11.83;;;;;;;;;;5281501;28;20047;-77
2023/12/02 05:15:39;;;;;;;19.83;12.73;;;;;;;;;;5280872;28;20036;-77
2023/12/02 05:18:11;;;;;;;18.90;12.43;;;;;;;;;;5281180;28;20028;-77
2023/12/02 05:20:42;;;;;;;19.13;12.53;;;;;;;;;;5281328;28;20012;-77
2023/12/02 05:23:13;;;;;;;18.07;11.87;;;;;;;;;;5280594;28;20021;-77
2023/12/02 05:25:45;;;;;;;20.33;12.63;;;;;;;;;;5281229;28;20013;-77
2023/12/02 05:28:18;;;;;;;18.77;12.13;;;;;;;;;;5280666;28;20135;-78
2023/12/02 05:30:50;;;;;;;20.03;12.80;;;;;;;;;;5281311;28;20021;-76
2023/12/02 05:33:22;;;;;;;21.27;14.00;;;;;;;;;;5281046;28;20074;-77
2023/12/02 05:35:53;;;;;;;20.60;13.37;;;;;;;;;;5280770;28;20056;-77
2023/12/02 05:38:24;;;;;;;18.27;12.57;;;;;;;;;;5280707;28;20101;-77
2023/12/02 05:40:55;;;;;;;19.60;12.23;;;;;;;;;;5281411;28;20070;-78
2023/12/02 05:43:26;;;;;;;16.63;10.93;;;;;;;;;;5284346;28;20126;-77
2023/12/02 05:45:58;;;;;;;17.87;12.17;;;;;;;;;;5285349;28;20012;-78
2023/12/02 05:48:29;;;;;;;18.40;12.33;;;;;;;;;;5285149;28;20123;-78
2023/12/02 05:51:00;;;;;;;20.10;12.87;;;;;;;;;;5284201;28;20056;-78
2023/12/02 05:53:32;;;;;;;21.47;13.17;;;;;;;;;;5284800;28;20090;-78
2023/12/02 05:56:03;;;;;;;19.37;12.50;;;;;;;;;;5284480;28;20354;-78
2023/12/02 05:58:35;;;;;;;20.47;12.53;;;;;;;;;;5285091;28;20032;-78
2023/12/02 06:01:07;;;;;;;18.27;11.83;;;;;;;;;;5285007;28;20033;-77
2023/12/02 06:03:38;;;;;;;21.53;13.43;;;;;;;;;;5284475;28;20510;-77
2023/12/02 06:06:10;;;;;;;21.13;13.27;;;;;;;;;;5284546;28;20066;-77
2023/12/02 06:08:42;;;;;;;19.60;11.83;;;;;;;;;;5284709;28;20111;-77
2023/12/02 06:11:13;;;;;;;20.63;12.37;;;;;;;;;;5284175;28;20058;-77
2023/12/02 06:13:44;;;;;;;21.23;13.43;;;;;;;;;;5282466;28;20020;-77
2023/12/02 06:16:15;;;;;;;22.57;13.03;;;;;;;;;;5280939;28;20524;-76
2023/12/02 06:18:46;;;;;;;20.40;12.50;;;;;;;;;;5279927;28;20017;-77
2023/12/02 06:21:18;;;;;;;19.67;13.07;;;;;;;;;;5281422;28;20020;-77
2023/12/02 06:23:49;;;;;;;19.17;12.70;;;;;;;;;;5281174;28;20104;-78
2023/12/02 06:26:21;;;;;;;17.73;11.83;;;;;;;;;;5279414;28;20025;-77
2023/12/02 06:28:53;;;;;;;19.53;12.70;;;;;;;;;;5280729;28;20048;-77
2023/12/02 06:31:24;;;;;;;21.20;13.23;;;;;;;;;;5281141;28;20096;-77
2023/12/02 06:33:55;;;;;;;21.80;13.27;;;;;;;;;;5283077;28;20036;-77
2023/12/02 06:36:26;;;;;;;20.27;13.10;;;;;;;;;;5282601;28;20099;-78
2023/12/02 06:38:57;;;;;;;20.13;13.47;;;;;;;;;;5282383;28;20464;-78
2023/12/02 06:41:29;;;;;;;18.77;12.57;;;;;;;;;;5284578;28;20069;-78
2023/12/02 06:44:00;;;;;;;19.70;12.47;;;;;;;;;;5284467;28;20027;-78
2023/12/02 06:46:31;;;;;;;19.40;12.17;;;;;;;;;;5283683;28;20032;-78
2023/12/02 06:49:02;;;;;;;20.90;13.80;;;;;;;;;;5284021;28;20032;-79
2023/12/02 06:51:34;;;;;;;21.93;14.03;;;;;;;;;;5283862;28;20020;-79
2023/12/02 06:54:05;;;;;;;20.77;13.00;;;;;;;;;;5282810;28;20078;-78
2023/12/02 06:56:36;;;;;;;20.43;13.33;;;;;;;;;;5283905;28;20035;-79
2023/12/02 06:59:07;;;;;;;22.53;13.83;;;;;;;;;;5284324;28;20410;-79
2023/12/02 07:01:40;;;;;;;23.17;15.17;;;;;;;;;;5283298;28;20174;-79
2023/12/02 07:04:11;;;;;;;18.20;11.87;;;;;;;;;;5284157;28;20017;-78
2023/12/02 07:06:42;;;;;;;20.63;13.33;;;;;;;;;;5283225;28;20036;-79
2023/12/02 07:09:13;;;;;;;18.80;12.23;;;;;;;;;;5283985;28;20437;-79
2023/12/02 07:11:44;;;;;;;22.05;13.32;;;;;;;;;;5284006;28;20021;-79
2023/12/02 07:14:16;;;;;;;17.33;11.23;;;;;;;;;;5282860;28;20024;-79
2023/12/02 07:16:47;;;;;;;20.50;12.73;;;;;;;;;;5284140;28;20486;-79
2023/12/02 07:19:19;;;;;;;22.90;13.93;;;;;;;;;;5284131;28;20021;-79
2023/12/02 07:21:51;;;;;;;20.83;13.57;;;;;;;;;;5282947;28;20054;-79
2023/12/02 07:24:22;;;;;;;18.87;12.37;;;;;;;;;;5283618;28;20028;-79
2023/12/02 07:26:53;;;;;;;19.27;11.93;;;;;;;;;;5283676;28;20021;-80
2023/12/02 07:29:25;;;;;;;23.53;14.33;;;;;;;;;;5282120;28;20119;-79
2023/12/02 07:31:56;;;;;;;19.53;12.43;;;;;;;;;;5283409;28;20027;-79
2023/12/02 07:34:27;;;;;;;19.83;12.30;;;;;;;;;;5283389;28;20066;-79
2023/12/02 07:36:58;;;;;;;20.97;13.30;;;;;;;;;;5282736;28;20456;-79
2023/12/02 07:39:29;;;;;;;20.93;13.13;;;;;;;;;;5283399;28;20391;-79
2023/12/02 07:42:00;;;;;;;20.67;12.97;;;;;;;;;;5282530;28;20051;-79
2023/12/02 07:44:32;;;;;;;18.57;11.77;;;;;;;;;;5282949;28;20028;-79
2023/12/02 07:47:04;;;;;;;22.40;13.57;;;;;;;;;;5282960;28;20024;-79
2023/12/02 07:49:35;;;;;;;22.10;13.90;;;;;;;;;;5282060;28;20052;-79
2023/12/02 07:52:06;;;;;;;21.53;13.77;;;;;;;;;;5283005;28;20031;-77
2023/12/02 07:54:37;;;;;;;22.40;13.80;;;;;;;;;;5282748;28;20020;-80
2023/12/02 07:57:08;;;;;;;19.67;12.80;;;;;;;;;;5281883;28;20471;-76
2023/12/02 07:59:39;;;;;;;24.10;15.10;;;;;;;;;;5282634;28;20420;-78
2023/12/02 08:02:11;;;;;;;22.53;14.60;;;;;;;;;;5282734;28;20356;-77
2023/12/02 08:04:43;;;;;;;21.50;14.27;;;;;;;;;;5281487;28;20040;-77
2023/12/02 08:07:14;;;;;;;22.20;14.17;;;;;;;;;;5282522;28;20082;-78
2023/12/02 08:09:45;;;;;;;23.73;13.17;;;;;;;;;;5281885;28;20459;-78
2023/12/02 08:12:17;;;;;;;20.97;13.57;;;;;;;;;;5282328;28;20058;-80
2023/12/02 08:14:48;;;;;;;21.23;14.10;;;;;;;;;;5282307;28;20025;-79
2023/12/02 08:17:19;;;;;;;22.13;14.07;;;;;;;;;;5283245;28;20115;-79
2023/12/02 08:19:50;;;;;;;21.60;13.57;;;;;;;;;;5290047;28;20042;-79
2023/12/02 08:22:24;;;;;;;22.23;13.60;;;;;;;;;;5283604;28;20387;-81
2023/12/02 08:24:55;;;;;;;22.83;13.97;;;;;;;;;;5283305;28;20472;-82
2023/12/02 08:27:26;;;;;;;23.03;14.10;;;;;;;;;;5283575;28;20031;-82
2023/12/02 08:29:58;;;;;;;21.60;13.77;;;;;;;;;;5286266;28;20012;-83
2023/12/02 08:32:29;;;;;;;20.40;13.27;;;;;;;;;;5282319;28;20028;-82
2023/12/02 08:35:00;;;;;;;22.60;14.00;;;;;;;;;;5282220;28;20103;-80
2023/12/02 08:37:31;;;;;;;24.80;14.83;;;;;;;;;;5282023;28;20016;-79
2023/12/02 08:40:05;;;;;;;22.43;13.60;;;;;;;;;;5281616;28;20028;-80
2023/12/02 08:42:36;;;;;;;20.30;13.30;;;;;;;;;;5283400;28;20021;-82
2023/12/02 08:45:07;;;;;;;22.77;13.83;;;;;;;;;;5282287;28;20371;-82
2023/12/02 08:47:38;;;;;;;21.80;13.93;;;;;;;;;;5283530;28;20031;-81
2023/12/02 08:50:10;;;;;;;20.87;13.50;;;;;;;;;;5282472;28;20107;-79
2023/12/02 08:52:41;;;;;;;23.83;15.07;;;;;;;;;;5281521;28;20048;-79
2023/12/02 08:55:12;;;;;;;19.67;12.83;;;;;;;;;;5282000;28;20070;-79
2023/12/02 08:57:43;;;;;;;23.83;14.53;;;;;;;;;;5281756;28;20020;-77
2023/12/02 09:00:15;;;;;;;19.70;13.03;;;;;;;;;;5281475;28;20024;-80
2023/12/02 09:02:46;;;;;;;23.87;14.13;;;;;;;;;;5282402;28;20031;-81
2023/12/02 09:05:17;;;;;;;19.97;13.13;;;;;;;;;;5282258;28;20050;-80
2023/12/02 09:07:48;;;;;;;21.00;14.17;;;;;;;;;;5281824;28;20499;-81
2023/12/02 09:10:20;;;;;;;21.30;13.90;;;;;;;;;;5279102;28;20016;-79
2023/12/02 09:12:51;;;;;;;22.27;14.23;;;;;;;;;;5280456;28;20028;-80
2023/12/02 09:15:23;;;;;;;21.43;13.67;;;;;;;;;;5280410;28;20464;-80
2023/12/02 09:18:03;;;;;;;23.20;14.53;;;;;;;;;;5281791;28;20024;-80
2023/12/02 09:20:48;;;;;;;25.70;15.20;;;;;;;;;;5279899;28;20025;-82
2023/12/02 09:23:20;;;;;;;24.50;14.43;;;;;;;;;;5281766;28;20019;-82
2023/12/02 09:25:51;;;;;;;23.83;15.33;;;;;;;;;;5280826;28;20463;-81
2023/12/02 09:28:27;;;;;;;23.87;15.40;;;;;;;;;;5277905;28;20035;-79
2023/12/02 09:30:59;;;;;;;19.33;12.27;;;;;;;;;;5281792;28;20017;-79
2023/12/02 09:33:31;;;;;;;23.23;14.70;;;;;;;;;;5281132;28;20028;-79
2023/12/02 09:36:02;;;;;;;23.73;14.70;;;;;;;;;;5280448;28;20016;-84
2023/12/02 09:38:34;;;;;;;23.07;15.07;;;;;;;;;;5281683;28;20433;-83
2023/12/02 09:41:09;;;;;;;22.87;14.57;;;;;;;;;;5281353;28;20031;-83
2023/12/02 09:44:00;;;;;;;19.70;13.73;;;;;;;;;;5279712;28;20044;-83
2023/12/02 09:46:33;;;;;;;24.10;15.20;;;;;;;;;;5260626;28;20356;-83
2023/12/02 09:49:19;;;;;;;21.63;14.47;;;;;;;;;;5281062;28;20383;-80
2023/12/02 09:51:59;;;;;;;24.80;14.97;;;;;;;;;;5281649;28;20055;-81
2023/12/02 09:54:31;;;;;;;22.50;14.70;;;;;;;;;;5281571;28;20044;-82
2023/12/02 09:57:07;;;;;;;24.07;14.40;;;;;;;;;;5280212;28;20116;-82
2023/12/02 09:59:48;;;;;;;23.20;14.63;;;;;;;;;;5281392;28;20012;-82
2023/12/02 10:02:33;;;;;;;20.67;13.90;;;;;;;;;;5281107;28;20051;-83
2023/12/02 10:05:04;;;;;;;24.30;15.17;;;;;;;;;;5290370;28;20024;-83
2023/12/02 10:07:50;;;;;;;21.53;14.73;;;;;;;;;;5285733;28;20066;-82
2023/12/02 10:10:22;;;;;;;23.77;14.27;;;;;;;;;;5281541;28;20020;-83
2023/12/02 10:13:13;;;;;;;24.67;14.87;;;;;;;;;;5281361;28;20108;-82
2023/12/02 10:15:46;;;;;;;25.10;15.17;;;;;;;;;;5280855;28;20037;-79
2023/12/02 10:18:21;;;;;;;22.40;15.00;;;;;;;;;;5280866;28;20066;-82
2023/12/02 10:20:56;;;;;;;24.07;14.97;;;;;;;;;;5281063;28;20024;-75
2023/12/02 10:23:41;;;;;;;22.20;14.37;;;;;;;;;;5280286;28;20021;-82
2023/12/02 10:26:15;;;;;;;22.47;14.90;;;;;;;;;;5281746;28;20094;-81
2023/12/02 10:28:52;;;;;;;23.73;15.50;;;;;;;;;;5283593;28;20030;-81
2023/12/02 10:31:30;;;;;;;23.27;15.57;;;;;;;;;;5284040;28;20023;-81
2023/12/02 10:34:01;;;;;;;22.77;14.10;;;;;;;;;;5284730;28;20016;-81
2023/12/02 10:36:33;;;;;;;23.70;14.83;;;;;;;;;;5284834;28;20028;-82
2023/12/02 10:39:09;;;;;;;23.93;15.93;;;;;;;;;;5284122;28;20031;-81
2023/12/02 10:41:57;;;;;;;23.67;14.63;;;;;;;;;;5284769;28;20739;-81
2023/12/02 10:44:29;;;;;;;23.70;15.23;;;;;;;;;;5283731;28;20025;-81
2023/12/02 10:47:03;;;;;;;22.97;14.63;;;;;;;;;;5283795;28;20024;-81
2023/12/02 10:49:34;;;;;;;23.07;14.97;;;;;;;;;;5284794;28;20024;-81
2023/12/02 10:52:07;;;;;;;22.70;14.20;;;;;;;;;;5284112;28;20108;-78
2023/12/02 10:54:41;;;;;;;23.67;14.37;;;;;;;;;;5284911;28;20044;-76
2023/12/02 10:57:12;;;;;;;25.53;15.53;;;;;;;;;;5284603;28;20020;-80
2023/12/02 10:59:55;;;;;;;23.93;15.50;;;;;;;;;;5283963;28;20051;-82
2023/12/02 11:02:29;;;;;;;22.73;14.40;;;;;;;;;;5287814;28;20379;-80
2023/12/02 11:05:14;;;;;;;22.83;14.33;;;;;;;;;;5289107;28;20028;-79
2023/12/02 11:07:48;;;;;;;24.53;14.67;;;;;;;;;;5293523;28;20028;-79
2023/12/02 11:10:24;;;;;;;25.33;16.13;;;;;;;;;;5293462;28;20038;-77
2023/12/02 11:12:59;;;;;;;24.53;15.40;;;;;;;;;;5286786;28;20016;-78
2023/12/02 11:15:32;;;;;;;27.43;16.13;;;;;;;;;;5285840;28;20113;-77
2023/12/02 11:18:04;;;;;;;26.50;16.13;;;;;;;;;;5290165;28;20036;-77
2023/12/02 11:20:41;;;;;;;27.00;16.83;;;;;;;;;;5297810;28;20028;-78
2023/12/02 11:23:12;;;;;;;25.30;15.50;;;;;;;;;;5292425;28;20060;-80
2023/12/02 11:25:52;;;;;;;25.92;14.75;;;;;;;;;;5287113;28;20135;-80
2023/12/02 11:28:23;;;;;;;26.63;16.47;;;;;;;;;;5284781;28;20037;-81
2023/12/02 11:31:09;;;;;;;28.66;16.96;;;;;;;;;;5285226;28;20025;-79
2023/12/02 11:33:59;;;;;;;25.53;16.07;;;;;;;;;;5283322;28;20037;-77
2023/12/02 11:36:42;;;;;;;22.83;15.17;;;;;;;;;;5283869;28;20028;-79
2023/12/02 11:39:26;;;;;;;22.17;14.77;;;;;;;;;;5282770;28;20456;-79
2023/12/02 11:42:03;;;;;;;25.67;16.43;;;;;;;;;;5282843;28;20021;-77
2023/12/02 11:44:55;;;;;;;22.10;14.53;;;;;;;;;;5283287;28;20414;-77
2023/12/02 11:47:31;;;;;;;27.00;16.97;;;;;;;;;;5282887;28;20127;-76
2023/12/02 11:50:21;;;;;;;24.63;16.13;;;;;;;;;;5282609;28;20025;-77
2023/12/02 11:52:54;;;;;;;25.10;15.40;;;;;;;;;;5283318;28;20515;-78
2023/12/02 11:55:32;;;;;;;28.60;16.30;;;;;;;;;;5282151;28;20417;-77
2023/12/02 11:58:30;;;;;;;26.23;15.30;;;;;;;;;;5283934;28;20427;-77
2023/12/02 12:01:16;;;;;;;25.83;16.17;;;;;;;;;;5274297;28;20059;-78
2023/12/02 12:04:06;;;;;;;26.00;15.20;;;;;;;;;;5282282;28;20021;-76
2023/12/02 12:06:56;;;;;;;25.90;16.07;;;;;;;;;;5282680;28;20070;-76
2023/12/02 12:09:53;;;;;;;27.30;15.57;;;;;;;;;;5281616;28;20032;-76
2023/12/02 12:12:25;;;;;;;23.23;14.80;;;;;;;;;;5267113;28;20040;-77
2023/12/02 12:14:57;;;;;;;22.07;13.73;;;;;;;;;;5280155;28;20016;-76
2023/12/02 12:17:29;;;;;;;24.67;15.53;;;;;;;;;;5281316;28;20057;-76
2023/12/02 12:20:17;;;;;;;22.20;14.77;;;;;;;;;;5281885;28;20024;-78
2023/12/02 12:22:48;;;;;;;23.80;15.37;;;;;;;;;;5280577;28;20459;-77
2023/12/02 12:25:19;;;;;;;23.03;14.00;;;;;;;;;;5280229;28;20021;-74
2023/12/02 12:27:51;;;;;;;25.03;15.07;;;;;;;;;;5282104;28;20495;-73
2023/12/02 12:30:22;;;;;;;23.22;14.42;;;;;;;;;;5280744;28;20028;-72
2023/12/02 12:32:56;;;;;;;24.37;15.33;;;;;;;;;;5282322;28;20017;-72
2023/12/02 12:35:27;;;;;;;20.23;13.03;;;;;;;;;;5282255;28;20482;-72
2023/12/02 12:37:59;;;;;;;23.67;14.27;;;;;;;;;;5281384;28;20040;-72
2023/12/02 12:40:32;;;;;;;21.93;13.90;;;;;;;;;;5282068;28;20383;-72
2023/12/02 12:43:03;;;;;;;24.40;14.47;;;;;;;;;;5282015;28;20050;-73
2023/12/02 12:45:34;;;;;;;20.73;13.37;;;;;;;;;;5281447;28;20112;-73
2023/12/02 12:48:06;;;;;;;25.50;14.40;;;;;;;;;;5281894;28;20060;-73
2023/12/02 12:50:38;;;;;;;25.63;14.87;;;;;;;;;;5281614;28;20111;-72
2023/12/02 12:53:12;;;;;;;22.67;14.17;;;;;;;;;;5280897;28;20495;-71
2023/12/02 12:55:44;;;;;;;23.17;14.57;;;;;;;;;;5281757;28;20367;-71
2023/12/02 12:58:16;;;;;;;24.53;14.03;;;;;;;;;;5281083;28;20021;-71
2023/12/02 13:00:48;;;;;;;22.77;14.17;;;;;;;;;;5281991;28;20009;-73
2023/12/02 13:03:43;;;;;;;23.43;14.40;;;;;;;;;;5281904;28;20012;-72
2023/12/02 13:06:50;;;;;;;22.07;13.87;;;;;;;;;;5280944;28;20165;-72
2023/12/02 13:09:28;;;;;;;26.27;14.90;;;;;;;;;;5237531;28;20053;-72
2023/12/02 13:12:20;;;;;;;22.50;14.73;;;;;;;;;;5276374;28;20115;-72
2023/12/02 13:14:53;;;;;;;21.90;14.10;;;;;;;;;;5281740;28;20471;-70
2023/12/02 13:17:24;;;;;;;24.93;14.90;;;;;;;;;;5281118;28;20024;-72
2023/12/02 13:19:56;;;;;;;21.67;14.13;;;;;;;;;;5281092;28;20051;-73
2023/12/02 13:22:28;;;;;;;24.07;15.53;;;;;;;;;;5281388;28;20023;-72
2023/12/02 13:25:02;;;;;;;25.80;15.13;;;;;;;;;;5281392;28;20047;-72
2023/12/02 13:27:37;;;;;;;24.13;15.70;;;;;;;;;;5280651;28;20089;-73
2023/12/02 13:30:09;;;;;;;22.03;14.27;;;;;;;;;;5281631;28;20021;-73
2023/12/02 13:32:42;;;;;;;24.77;15.33;;;;;;;;;;5281107;28;20418;-73
2023/12/02 13:35:14;;;;;;;22.37;14.07;;;;;;;;;;5280195;28;20478;-73
2023/12/02 13:37:51;;;;;;;24.47;15.53;;;;;;;;;;5280761;28;20387;-73
2023/12/02 13:40:26;;;;;;;23.40;13.80;;;;;;;;;;5280221;28;20471;-73
2023/12/02 13:42:58;;;;;;;22.77;13.77;;;;;;;;;;5281423;28;20058;-73
2023/12/02 13:45:30;;;;;;;23.50;15.30;;;;;;;;;;5281160;28;20368;-73
2023/12/02 13:48:04;;;;;;;25.03;15.40;;;;;;;;;;5280109;28;20028;-74
2023/12/02 13:50:41;;;;;;;26.83;16.17;;;;;;;;;;5281341;28;20047;-72
2023/12/02 13:53:27;;;;;;;26.27;15.83;;;;;;;;;;5280932;28;20041;-72
2023/12/02 13:56:01;;;;;;;26.53;15.77;;;;;;;;;;5280067;28;20104;-73
2023/12/02 13:58:42;;;;;;;23.73;14.57;;;;;;;;;;5281249;28;20082;-73
2023/12/02 14:01:18;;;;;;;26.40;16.57;;;;;;;;;;5280846;28;20028;-73
2023/12/02 14:03:58;;;;;;;25.00;15.23;;;;;;;;;;5283202;28;20514;-73
2023/12/02 14:06:39;;;;;;;26.00;15.63;;;;;;;;;;5285003;28;20051;-74
2023/12/02 14:09:17;;;;;;;28.47;17.23;;;;;;;;;;5284430;28;20467;-74
2023/12/02 14:11:53;;;;;;;27.30;16.40;;;;;;;;;;5285001;28;20036;-72
2023/12/02 14:14:52;;;;;;;27.67;16.13;;;;;;;;;;5284574;28;20476;-73
2023/12/02 14:17:35;;;;;;;33.00;17.85;;;;;;;;;;5283693;28;20021;-73
2023/12/02 14:20:25;;;;;;;26.77;17.07;;;;;;;;;;5284754;28;20349;-73
2023/12/02 14:23:05;;;;;;;30.07;16.97;;;;;;;;;;5284130;28;20424;-71
2023/12/02 14:25:42;;;;;;;26.87;16.03;;;;;;;;;;5284527;28;20054;-71
2023/12/02 14:28:39;;;;;;;33.07;17.57;;;;;;;;;;5284326;28;20134;-72
2023/12/02 14:31:27;;;;;;;28.67;17.73;;;;;;;;;;5267391;28;20067;-74
2023/12/02 14:34:17;;;;;;;27.77;17.33;;;;;;;;;;5284781;28;20024;-74
2023/12/02 14:36:51;;;;;;;27.50;16.67;;;;;;;;;;5283688;28;20021;-73
2023/12/02 14:39:46;;;;;;;28.73;16.83;;;;;;;;;;5283847;28;20028;-73
2023/12/02 14:42:26;;;;;;;29.17;17.43;;;;;;;;;;5283283;28;20112;-74
2023/12/02 14:44:58;;;;;;;30.07;18.57;;;;;;;;;;5281406;28;20032;-74
2023/12/02 14:47:36;;;;;;;28.50;16.67;;;;;;;;;;5282020;28;20029;-74
2023/12/02 14:50:07;;;;;;;31.33;18.33;;;;;;;;;;5281897;28;20017;-73
2023/12/02 14:52:43;;;;;;;24.70;15.57;;;;;;;;;;5280601;28;20048;-73